Portada
METAR-TAF:

METAR-TAF

Aeroports :

Tateyama, Japó

latitud: 34-59N, longitud: 139-50E, altitud: 3 m

Observació

L'informe es va fer fa 51 minuts, a les 21:50 UTC
Vent 14 kt del Oest/Sud-Oest
Temperatura 18°C
Humitat 94%
Pressió 1008 hPa
Visibilitat: 5000 m
Núvols disperses a una alçada de 800 ft
Cel ennuvolat a una alçada de 1500 ft
Cel ennuvolat a una alçada de 3000 ft
xàfecs de pluja, boirina

METAR: RJTE 132150Z 24014KT 5000 -SHRA BR SCT008 BKN015 BKN030 18/17 Q1008 RMK 3ST008 5CU015 7SC030 A2978

Hora: 07:41 (22:41 UTC)


TAF: manca

Observacions i pronòstics meteorològics de més de 4000 aeroports (METAR i TAF).

Les estacions disponibles són els punts grocs i vermells al mapa.

Posi el ratolí al punt desitjat per veure el nom de l'estació.

Feu clic per veure les observacions i els pronòstics meteorològics.

Per canviar el mapa: feu clic els botons verds amb una creu de color negre per apropar; al botó verd amb un guió per allunyar la imatge; o en les fletxes verdes per a mapes adjacents.


METAR-TAF: